Time;durP1;ratioP1;P1;durP2;ratioP2;P2;SDS_P1;SDS_P2;PMS_P1;PMS_P2;Temp;Humidity;BMP_temperature;BMP_pressure;BME280_temperature;BME280_humidity;BME280_pressure;Samples;Min_cycle;Max_cycle;Signal;HPM_P1;HPM_P2
2022/03/31 00:00:38;;;;;;;21.40;10.50;;;7.30;99.90;;;;;;5038579;28;20218;-67
2022/03/31 00:03:17;;;;;;;17.80;10.03;;;7.40;99.90;;;;;;5041987;28;20195;-67
2022/03/31 00:05:44;;;;;;;18.67;10.87;;;7.40;99.90;;;;;;5037381;28;20229;-68
2022/03/31 00:08:14;;;;;;;17.13;9.73;;;7.40;99.90;;;;;;5036766;28;20614;-67
2022/03/31 00:10:43;;;;;;;21.53;10.67;;;7.40;99.90;;;;;;5038189;28;20225;-68
2022/03/31 00:13:15;;;;;;;18.17;10.37;;;7.40;99.90;;;;;;5040081;28;20564;-67
2022/03/31 00:15:43;;;;;;;19.90;10.57;;;7.40;99.90;;;;;;5037691;28;20218;-67
2022/03/31 00:18:13;;;;;;;17.77;9.47;;;7.50;99.90;;;;;;5034182;28;20671;-67
2022/03/31 00:20:39;;;;;;;18.13;10.60;;;7.50;99.90;;;;;;5037836;28;20203;-67
2022/03/31 00:23:06;;;;;;;18.30;10.10;;;7.60;99.90;;;;;;5029856;28;20386;-67
2022/03/31 00:25:33;;;;;;;17.60;10.40;;;7.60;99.90;;;;;;5036597;28;20215;-67
2022/03/31 00:28:03;;;;;;;19.57;9.73;;;7.60;99.90;;;;;;5035247;28;20214;-67
2022/03/31 00:30:30;;;;;;;20.17;10.80;;;7.60;99.90;;;;;;5036565;28;20207;-70
2022/03/31 00:32:58;;;;;;;16.77;9.67;;;7.60;99.90;;;;;;5036728;28;20223;-68
2022/03/31 00:35:24;;;;;;;17.53;9.70;;;7.60;99.90;;;;;;5037173;28;20639;-67
2022/03/31 00:37:51;;;;;;;16.63;9.63;;;7.60;99.90;;;;;;5036428;28;20240;-69
2022/03/31 00:40:20;;;;;;;15.83;9.83;;;7.60;99.90;;;;;;5039358;28;20195;-69
2022/03/31 00:42:51;;;;;;;18.07;10.00;;;7.60;99.90;;;;;;5037279;28;20940;-68
2022/03/31 00:45:25;;;;;;;18.23;9.97;;;7.60;99.90;;;;;;5033469;28;20220;-67
2022/03/31 00:47:54;;;;;;;16.80;10.00;;;7.60;99.90;;;;;;5033861;28;20213;-68
2022/03/31 00:50:22;;;;;;;17.87;10.50;;;7.60;99.90;;;;;;5038488;28;20207;-67
2022/03/31 00:52:49;;;;;;;17.43;10.13;;;7.60;99.90;;;;;;5037778;28;20280;-67
2022/03/31 00:55:19;;;;;;;18.83;10.20;;;7.60;99.90;;;;;;5035224;28;20226;-67
2022/03/31 00:57:47;;;;;;;17.60;10.40;;;7.50;99.90;;;;;;5039279;28;20553;-67
2022/03/31 01:00:15;;;;;;;16.87;10.10;;;7.50;99.90;;;;;;5042177;28;20191;-67
2022/03/31 01:02:44;;;;;;;19.53;10.53;;;7.50;99.90;;;;;;5034648;28;20200;-67
2022/03/31 01:05:14;;;;;;;20.47;11.07;;;7.50;99.90;;;;;;5034984;28;20319;-69
2022/03/31 01:07:42;;;;;;;18.53;10.17;;;7.40;99.90;;;;;;5039684;28;20203;-68
2022/03/31 01:10:10;;;;;;;21.27;10.60;;;7.40;99.90;;;;;;5041547;28;20604;-69
2022/03/31 01:12:37;;;;;;;23.33;11.87;;;7.50;99.90;;;;;;5031288;28;20199;-70
2022/03/31 01:15:07;;;;;;;21.77;10.93;;;7.40;99.90;;;;;;5038912;28;20298;-67
2022/03/31 01:17:35;;;;;;;20.50;11.27;;;7.40;99.90;;;;;;5032347;28;20573;-69
2022/03/31 01:20:03;;;;;;;18.03;10.47;;;7.30;99.90;;;;;;5036973;28;20198;-67
2022/03/31 01:22:31;;;;;;;20.17;11.23;;;7.30;99.90;;;;;;5039318;28;20203;-69
2022/03/31 01:24:59;;;;;;;20.83;11.33;;;7.30;99.90;;;;;;5038439;28;20219;-67
2022/03/31 01:27:26;;;;;;;19.53;11.07;;;7.20;99.90;;;;;;5037786;28;20674;-66
2022/03/31 01:29:53;;;;;;;18.20;10.43;;;7.20;99.90;;;;;;5038533;28;20216;-69
2022/03/31 01:32:21;;;;;;;19.87;10.83;;;7.20;99.90;;;;;;5038271;28;20199;-68
2022/03/31 01:34:48;;;;;;;21.20;11.57;;;7.20;99.90;;;;;;5038894;28;20198;-68
2022/03/31 01:37:15;;;;;;;22.83;11.23;;;7.20;99.90;;;;;;5038261;28;20198;-67
2022/03/31 01:39:42;;;;;;;18.60;10.47;;;7.20;99.90;;;;;;5033290;28;20210;-67
2022/03/31 01:42:09;;;;;;;20.97;10.97;;;7.20;99.90;;;;;;5038465;28;20198;-67
2022/03/31 01:44:36;;;;;;;20.17;11.67;;;7.30;99.90;;;;;;5036322;28;20203;-66
2022/03/31 01:47:03;;;;;;;19.83;10.97;;;7.30;99.90;;;;;;5034081;28;20222;-68
2022/03/31 01:49:29;;;;;;;19.13;11.07;;;7.20;99.90;;;;;;5037197;28;20198;-70
2022/03/31 01:51:56;;;;;;;25.20;12.47;;;7.20;99.90;;;;;;5043331;28;20697;-67
2022/03/31 01:54:23;;;;;;;19.87;10.70;;;7.30;99.90;;;;;;5044417;28;20187;-70
2022/03/31 01:56:49;;;;;;;20.53;11.10;;;7.30;99.90;;;;;;5044332;28;20290;-68
2022/03/31 01:59:16;;;;;;;22.33;11.77;;;7.20;99.90;;;;;;5047455;28;20202;-69
2022/03/31 02:01:43;;;;;;;21.47;11.40;;;7.20;99.90;;;;;;5046977;28;20198;-68
2022/03/31 02:04:09;;;;;;;20.87;10.73;;;7.20;99.90;;;;;;5045872;28;20682;-67
2022/03/31 02:06:36;;;;;;;19.93;10.97;;;7.20;99.90;;;;;;5043858;28;20588;-68
2022/03/31 02:09:03;;;;;;;21.07;11.73;;;7.20;99.90;;;;;;5043005;28;20214;-67
2022/03/31 02:11:30;;;;;;;21.60;11.00;;;7.20;99.90;;;;;;5047183;28;20222;-67
2022/03/31 02:13:56;;;;;;;23.17;11.50;;;7.20;99.90;;;;;;5035940;28;20249;-67
2022/03/31 02:16:23;;;;;;;20.60;11.43;;;7.10;99.90;;;;;;5047918;28;20237;-67
2022/03/31 02:18:50;;;;;;;22.53;11.67;;;7.00;99.90;;;;;;5037405;28;20207;-67
2022/03/31 02:21:17;;;;;;;21.60;11.80;;;7.10;99.90;;;;;;5045772;28;20208;-67
2022/03/31 02:23:43;;;;;;;18.70;10.97;;;7.10;99.90;;;;;;5033517;28;20202;-67
2022/03/31 02:26:10;;;;;;;21.37;11.57;;;7.10;99.90;;;;;;5042845;28;20648;-67
2022/03/31 02:28:37;;;;;;;22.93;11.57;;;7.10;99.90;;;;;;5039753;28;20221;-69
2022/03/31 02:31:03;;;;;;;20.43;11.13;;;7.10;99.90;;;;;;5044477;28;20225;-68
2022/03/31 02:33:30;;;;;;;22.87;11.20;;;7.00;99.90;;;;;;5041400;28;20223;-68
2022/03/31 02:35:57;;;;;;;20.83;11.37;;;7.00;99.90;;;;;;5043445;28;20217;-68
2022/03/31 02:38:24;;;;;;;23.67;11.63;;;6.90;99.90;;;;;;5043877;28;20191;-67
2022/03/31 02:40:51;;;;;;;22.20;11.27;;;7.00;99.90;;;;;;5036501;28;20206;-67
2022/03/31 02:43:17;;;;;;;21.10;11.23;;;7.10;99.90;;;;;;5039257;28;20207;-68
2022/03/31 02:45:44;;;;;;;20.93;11.30;;;7.10;99.90;;;;;;5043285;28;20714;-68
2022/03/31 02:48:10;;;;;;;23.23;12.07;;;7.00;99.90;;;;;;5040576;28;20194;-67
2022/03/31 02:50:38;;;;;;;22.33;11.63;;;7.00;99.90;;;;;;5044463;28;20289;-67
2022/03/31 02:55:50;;;;;;;24.77;11.87;;;7.00;99.90;;;;;;5040617;28;20257;-67
2022/03/31 02:58:17;;;;;;;23.97;12.13;;;7.00;99.90;;;;;;5040213;28;20752;-68
2022/03/31 03:00:44;;;;;;;24.20;11.30;;;6.90;99.90;;;;;;5039079;28;20199;-67
2022/03/31 03:03:11;;;;;;;21.57;11.63;;;6.80;99.90;;;;;;5043429;28;20230;-67
2022/03/31 03:05:39;;;;;;;23.53;12.20;;;6.80;99.90;;;;;;5039912;28;20631;-67
2022/03/31 03:08:05;;;;;;;26.13;12.20;;;6.80;99.90;;;;;;5036317;28;20257;-67
2022/03/31 03:10:33;;;;;;;23.20;11.97;;;6.80;99.90;;;;;;5038962;28;20253;-69
2022/03/31 03:13:00;;;;;;;23.57;11.97;;;6.80;99.90;;;;;;5028017;28;20581;-67
2022/03/31 03:15:26;;;;;;;23.30;10.83;;;6.80;99.90;;;;;;5035293;28;20782;-65
2022/03/31 03:17:53;;;;;;;21.37;10.97;;;6.60;99.90;;;;;;5042865;28;20201;-67
2022/03/31 03:20:20;;;;;;;22.40;11.30;;;6.60;99.90;;;;;;5043157;28;20197;-66
2022/03/31 03:22:49;;;;;;;22.27;10.63;;;6.60;99.90;;;;;;5038699;28;20210;-67
2022/03/31 03:25:18;;;;;;;23.53;11.40;;;6.50;99.90;;;;;;5038306;28;20221;-67
2022/03/31 03:27:49;;;;;;;24.87;12.30;;;6.50;99.90;;;;;;5040518;28;20197;-71
2022/03/31 03:30:18;;;;;;;25.33;11.57;;;6.50;99.90;;;;;;5042523;28;20200;-67
2022/03/31 03:32:45;;;;;;;20.73;11.57;;;6.50;99.90;;;;;;5039879;28;20191;-68
2022/03/31 03:35:14;;;;;;;21.60;11.07;;;6.50;99.90;;;;;;5039100;28;20220;-67
2022/03/31 03:37:42;;;;;;;23.03;10.90;;;6.40;99.90;;;;;;5040459;28;20638;-67
2022/03/31 03:40:11;;;;;;;23.37;11.73;;;6.40;99.90;;;;;;5041022;28;20206;-67
2022/03/31 03:42:38;;;;;;;21.37;10.37;;;6.30;99.90;;;;;;5045974;28;20204;-68
2022/03/31 03:45:06;;;;;;;28.63;11.60;;;6.30;99.90;;;;;;5042295;28;20228;-70
2022/03/31 03:47:32;;;;;;;28.07;11.23;;;6.10;99.90;;;;;;5040937;28;20192;-67
2022/03/31 03:49:59;;;;;;;27.17;11.47;;;6.10;99.90;;;;;;5036946;28;20195;-68
2022/03/31 03:52:26;;;;;;;22.97;10.67;;;6.00;99.90;;;;;;5035697;28;20601;-68
2022/03/31 03:54:52;;;;;;;25.27;10.20;;;5.90;99.90;;;;;;5038860;28;20206;-67
2022/03/31 03:57:19;;;;;;;23.47;11.60;;;5.90;99.90;;;;;;5038040;28;20220;-69
2022/03/31 03:59:46;;;;;;;21.33;10.23;;;5.90;99.90;;;;;;5037237;28;20212;-67
2022/03/31 04:02:12;;;;;;;22.57;10.73;;;6.00;99.90;;;;;;5041934;28;20202;-67
2022/03/31 04:04:39;;;;;;;24.30;11.17;;;6.00;99.90;;;;;;5037731;28;20749;-67
2022/03/31 04:07:06;;;;;;;22.60;10.67;;;5.90;99.90;;;;;;5037732;28;20216;-67
2022/03/31 04:09:32;;;;;;;22.57;11.23;;;5.90;99.90;;;;;;5041358;28;20212;-67
2022/03/31 04:11:59;;;;;;;21.97;10.53;;;5.90;99.90;;;;;;5041421;28;20738;-67
2022/03/31 04:14:26;;;;;;;24.40;10.77;;;5.80;99.90;;;;;;5033612;28;20200;-68
2022/03/31 04:16:55;;;;;;;22.27;10.17;;;5.80;99.90;;;;;;5037754;28;20218;-67
2022/03/31 04:19:22;;;;;;;22.73;10.77;;;5.80;99.90;;;;;;5041267;28;20289;-66
2022/03/31 04:21:49;;;;;;;22.67;11.13;;;5.90;99.90;;;;;;5037846;28;20198;-66
2022/03/31 04:24:15;;;;;;;30.80;10.70;;;5.90;99.90;;;;;;5041257;28;20246;-67
2022/03/31 04:26:43;;;;;;;23.57;11.47;;;5.80;99.90;;;;;;5041546;28;20218;-69
2022/03/31 04:29:10;;;;;;;21.53;10.63;;;5.80;99.90;;;;;;5043636;28;20211;-67
2022/03/31 04:31:39;;;;;;;21.43;11.63;;;5.80;99.90;;;;;;5041112;28;20247;-68
2022/03/31 04:34:06;;;;;;;21.07;11.33;;;5.70;99.90;;;;;;5040506;28;20198;-67
2022/03/31 04:36:32;;;;;;;23.80;11.50;;;5.70;99.90;;;;;;5039624;28;20225;-67
2022/03/31 04:38:59;;;;;;;21.83;10.43;;;5.60;99.90;;;;;;5038319;28;20565;-67
2022/03/31 04:41:26;;;;;;;23.63;11.20;;;5.60;99.90;;;;;;5045745;28;20208;-70
2022/03/31 04:43:53;;;;;;;24.60;11.27;;;5.60;99.90;;;;;;5050236;28;20201;-67
2022/03/31 04:46:20;;;;;;;26.97;11.30;;;5.50;99.90;;;;;;5049025;28;20225;-68
2022/03/31 04:48:46;;;;;;;25.63;11.13;;;5.50;99.90;;;;;;5044357;28;20211;-67
2022/03/31 04:51:13;;;;;;;22.23;10.60;;;5.40;99.90;;;;;;5041000;28;20221;-70
2022/03/31 04:53:40;;;;;;;22.57;11.20;;;5.60;99.90;;;;;;5051337;28;20593;-69
2022/03/31 04:56:06;;;;;;;23.23;10.90;;;5.60;99.90;;;;;;5046268;28;20637;-67
2022/03/31 04:58:36;;;;;;;20.00;10.80;;;5.70;99.90;;;;;;5039826;28;20682;-69
2022/03/31 05:01:04;;;;;;;22.00;11.13;;;5.70;99.90;;;;;;5043625;28;20622;-69
2022/03/31 05:03:30;;;;;;;22.53;10.47;;;5.70;99.90;;;;;;5041307;28;20197;-68
2022/03/31 05:05:57;;;;;;;24.87;10.77;;;5.60;99.90;;;;;;5048587;28;20314;-68
2022/03/31 05:08:24;;;;;;;20.87;10.53;;;5.70;99.90;;;;;;5035618;28;20202;-66
2022/03/31 05:10:51;;;;;;;23.03;11.33;;;5.70;99.90;;;;;;5054114;28;20202;-67
2022/03/31 05:13:18;;;;;;;23.50;11.60;;;5.70;99.90;;;;;;5036287;28;20193;-67
2022/03/31 05:15:44;;;;;;;24.20;10.40;;;5.70;99.90;;;;;;5042152;28;20213;-68
2022/03/31 05:18:11;;;;;;;21.37;10.93;;;5.60;99.90;;;;;;5039104;28;20189;-69
2022/03/31 05:20:38;;;;;;;24.93;11.30;;;5.70;99.90;;;;;;5048596;28;20206;-68
2022/03/31 05:23:05;;;;;;;22.47;10.37;;;5.60;99.90;;;;;;5052277;28;20197;-67
2022/03/31 05:25:32;;;;;;;28.17;10.97;;;5.60;99.90;;;;;;5040011;28;20604;-67
2022/03/31 05:28:00;;;;;;;23.10;11.13;;;5.60;99.90;;;;;;5042274;28;20576;-66
2022/03/31 05:30:27;;;;;;;23.23;10.80;;;5.60;99.90;;;;;;5039648;28;22036;-71
2022/03/31 05:32:53;;;;;;;23.30;10.43;;;5.60;99.90;;;;;;5031033;28;20219;-68
2022/03/31 05:35:21;;;;;;;20.17;10.40;;;5.80;99.90;;;;;;5034054;28;20219;-71
2022/03/31 05:37:48;;;;;;;20.10;10.37;;;5.90;99.90;;;;;;5043910;28;20197;-67
2022/03/31 05:40:16;;;;;;;23.53;10.77;;;5.80;99.90;;;;;;5041309;28;20205;-67
2022/03/31 05:42:43;;;;;;;21.60;10.33;;;6.00;99.90;;;;;;5042564;28;20203;-72
2022/03/31 05:45:12;;;;;;;20.27;10.87;;;6.10;99.90;;;;;;5043786;28;20820;-69
2022/03/31 05:47:40;;;;;;;21.50;10.83;;;6.20;99.90;;;;;;5034277;28;20754;-71
2022/03/31 05:50:08;;;;;;;20.53;10.50;;;6.10;99.90;;;;;;5038644;28;20201;-71
2022/03/31 05:52:38;;;;;;;22.07;10.63;;;6.30;99.90;;;;;;5044169;28;20716;-69
2022/03/31 05:55:07;;;;;;;21.47;10.57;;;6.40;99.90;;;;;;5051424;28;20256;-69
2022/03/31 05:57:35;;;;;;;20.03;9.83;;;6.50;99.90;;;;;;5043934;28;20190;-68
2022/03/31 06:00:04;;;;;;;21.50;11.07;;;6.60;99.90;;;;;;5048223;28;20661;-69
2022/03/31 06:02:31;;;;;;;23.30;11.00;;;6.60;99.90;;;;;;5053825;28;20195;-71
2022/03/31 06:05:15;;;;;;;24.27;11.27;;;6.60;99.90;;;;;;5050661;28;20493;-67
2022/03/31 06:07:42;;;;;;;22.67;11.20;;;6.70;99.90;;;;;;5050050;28;20204;-68
2022/03/31 06:10:09;;;;;;;24.10;10.97;;;6.80;99.90;;;;;;5048132;28;20205;-67
2022/03/31 06:12:36;;;;;;;23.10;11.30;;;6.80;99.90;;;;;;5048643;28;20225;-68
2022/03/31 06:15:06;;;;;;;21.00;10.73;;;6.80;99.90;;;;;;5053919;28;20222;-68
2022/03/31 06:17:34;;;;;;;23.90;11.50;;;6.90;99.90;;;;;;5066209;28;20205;-68
2022/03/31 06:20:02;;;;;;;23.57;10.70;;;7.10;99.90;;;;;;5062654;28;20190;-68
2022/03/31 06:22:28;;;;;;;23.63;11.07;;;7.20;99.90;;;;;;5062483;28;20214;-69
2022/03/31 06:24:55;;;;;;;23.50;10.53;;;7.40;99.90;;;;;;5052711;28;20263;-66
2022/03/31 06:27:22;;;;;;;22.03;11.10;;;7.50;99.90;;;;;;5050596;28;20195;-70
2022/03/31 06:29:49;;;;;;;20.77;10.57;;;7.60;99.90;;;;;;5062150;28;20199;-69
2022/03/31 06:32:16;;;;;;;23.23;10.67;;;7.60;99.90;;;;;;5055440;28;20289;-72
2022/03/31 06:34:43;;;;;;;22.90;11.10;;;7.70;99.90;;;;;;5052816;28;20568;-69
2022/03/31 06:37:10;;;;;;;22.33;11.33;;;7.80;99.90;;;;;;5052318;28;20194;-72
2022/03/31 06:39:41;;;;;;;21.53;11.30;;;7.80;99.90;;;;;;5051072;28;20206;-72
2022/03/31 06:42:08;;;;;;;23.63;11.40;;;7.80;99.90;;;;;;5052156;28;20199;-74
2022/03/31 06:44:35;;;;;;;22.10;11.13;;;7.80;99.90;;;;;;5046302;28;20294;-72
2022/03/31 06:47:02;;;;;;;21.50;10.63;;;7.80;99.90;;;;;;5052063;28;20230;-73
2022/03/31 06:49:28;;;;;;;22.07;10.53;;;7.80;99.90;;;;;;5042349;28;20582;-73
2022/03/31 06:51:55;;;;;;;21.43;11.00;;;7.90;99.90;;;;;;5059911;28;20686;-71
2022/03/31 06:54:22;;;;;;;20.10;10.23;;;7.90;99.90;;;;;;5053292;28;20207;-72
2022/03/31 06:56:49;;;;;;;20.07;10.70;;;7.90;99.90;;;;;;5041636;28;20732;-70
2022/03/31 06:59:16;;;;;;;22.63;11.53;;;8.00;99.90;;;;;;5045226;28;20191;-71
2022/03/31 07:01:43;;;;;;;19.53;10.60;;;8.00;99.90;;;;;;5050044;28;20225;-70
2022/03/31 07:04:11;;;;;;;22.90;10.60;;;8.00;99.90;;;;;;5057002;28;20233;-71
2022/03/31 07:06:37;;;;;;;23.07;10.90;;;7.90;99.90;;;;;;5052945;28;20223;-69
2022/03/31 07:09:06;;;;;;;19.57;10.47;;;7.80;99.90;;;;;;5047954;28;20200;-69
2022/03/31 07:11:34;;;;;;;21.70;11.10;;;7.80;99.90;;;;;;5055275;28;20229;-68
2022/03/31 07:14:05;;;;;;;23.20;11.17;;;7.70;99.90;;;;;;5052049;28;20225;-72
2022/03/31 07:16:33;;;;;;;20.90;10.23;;;7.80;99.90;;;;;;5044686;28;20222;-70
2022/03/31 07:19:01;;;;;;;23.40;11.13;;;8.00;99.90;;;;;;5051781;28;20191;-70
2022/03/31 07:21:32;;;;;;;28.20;11.17;;;7.90;99.90;;;;;;5048878;28;20227;-72
2022/03/31 07:24:00;;;;;;;21.53;10.63;;;7.90;99.90;;;;;;5052575;28;20194;-69
2022/03/31 07:26:28;;;;;;;28.00;10.63;;;7.80;99.90;;;;;;5046610;28;20214;-71
2022/03/31 07:28:55;;;;;;;22.67;10.93;;;7.90;99.90;;;;;;5045259;28;20216;-68
2022/03/31 07:31:26;;;;;;;22.23;11.43;;;8.10;99.90;;;;;;5044430;28;20200;-65
2022/03/31 07:33:53;;;;;;;21.23;10.03;;;8.10;99.90;;;;;;5043947;28;20213;-71
2022/03/31 07:36:19;;;;;;;22.33;10.77;;;8.10;99.90;;;;;;5042598;28;20210;-67
2022/03/31 07:38:46;;;;;;;21.50;10.37;;;8.20;99.90;;;;;;5037366;28;20203;-68
2022/03/31 07:41:16;;;;;;;16.97;9.63;;;8.20;99.90;;;;;;5041842;28;20196;-69
2022/03/31 07:43:44;;;;;;;21.53;9.90;;;8.20;99.90;;;;;;5041928;28;20199;-71
2022/03/31 07:46:11;;;;;;;23.27;10.77;;;8.20;99.90;;;;;;5041696;28;20211;-67
2022/03/31 07:48:38;;;;;;;20.30;10.30;;;8.10;99.90;;;;;;5034414;28;20575;-66
2022/03/31 07:51:05;;;;;;;21.13;10.43;;;8.20;99.90;;;;;;5042084;28;20191;-67
2022/03/31 07:53:33;;;;;;;18.47;10.30;;;8.30;99.90;;;;;;5043991;28;20651;-67
2022/03/31 07:56:02;;;;;;;19.43;10.33;;;8.40;99.90;;;;;;5038591;28;20215;-69
2022/03/31 07:58:30;;;;;;;19.77;10.83;;;8.50;99.90;;;;;;5042433;28;20221;-72
2022/03/31 08:00:57;;;;;;;20.50;10.67;;;8.70;99.90;;;;;;5039351;28;20200;-70
2022/03/31 08:03:25;;;;;;;18.03;10.30;;;8.70;99.90;;;;;;5040629;28;20199;-65
2022/03/31 08:05:52;;;;;;;21.47;10.57;;;8.90;99.90;;;;;;5032930;28;20690;-68
2022/03/31 08:08:19;;;;;;;18.43;9.70;;;8.80;99.90;;;;;;5040144;28;20815;-66
2022/03/31 08:10:47;;;;;;;20.47;10.27;;;8.80;99.90;;;;;;5033242;28;20197;-69
2022/03/31 08:13:26;;;;;;;20.47;10.93;;;8.80;99.90;;;;;;5030197;28;20227;-68
2022/03/31 08:15:53;;;;;;;18.73;10.73;;;8.80;99.90;;;;;;5038019;28;20459;-66
2022/03/31 08:18:33;;;;;;;21.17;10.77;;;8.70;99.90;;;;;;5034670;28;20283;-70
2022/03/31 08:21:01;;;;;;;23.43;11.00;;;8.60;99.90;;;;;;5043416;28;20217;-72
2022/03/31 08:23:27;;;;;;;17.03;10.20;;;8.40;99.90;;;;;;5039315;28;20201;-70
2022/03/31 08:25:55;;;;;;;19.83;10.70;;;8.50;99.90;;;;;;5037441;28;20261;-67
2022/03/31 08:28:22;;;;;;;22.50;10.57;;;8.50;99.90;;;;;;5037292;28;20200;-67
2022/03/31 08:30:49;;;;;;;21.40;10.40;;;8.60;99.90;;;;;;5040170;28;20208;-69
2022/03/31 08:33:16;;;;;;;19.87;10.47;;;8.60;99.90;;;;;;5033656;28;20711;-68
2022/03/31 08:35:44;;;;;;;24.20;10.73;;;8.70;99.90;;;;;;5046222;28;20247;-68
2022/03/31 08:38:11;;;;;;;21.67;10.93;;;8.60;99.90;;;;;;5040547;28;20193;-68
2022/03/31 08:40:45;;;;;;;27.30;11.27;;;8.70;99.90;;;;;;5042922;28;20657;-68
2022/03/31 08:43:11;;;;;;;21.23;11.47;;;8.80;99.90;;;;;;5045243;28;20358;-68
2022/03/31 08:45:40;;;;;;;21.20;11.40;;;8.90;99.90;;;;;;5040050;28;20225;-67
2022/03/31 08:48:08;;;;;;;20.17;11.20;;;9.10;99.90;;;;;;5041016;28;20204;-68
2022/03/31 08:50:36;;;;;;;18.17;11.00;;;9.30;99.90;;;;;;5040952;28;20193;-71
2022/03/31 08:53:03;;;;;;;23.43;11.80;;;9.30;99.90;;;;;;5034966;28;20221;-71
2022/03/31 08:55:30;;;;;;;21.60;11.00;;;9.20;99.90;;;;;;5039206;28;20224;-70
2022/03/31 08:57:57;;;;;;;21.10;10.70;;;9.30;99.90;;;;;;5040032;28;20194;-67
2022/03/31 09:00:24;;;;;;;21.40;11.57;;;9.20;99.90;;;;;;5029655;28;20232;-69
2022/03/31 09:02:55;;;;;;;20.23;10.43;;;9.20;99.90;;;;;;5038577;28;20193;-68
2022/03/31 09:05:22;;;;;;;24.77;11.63;;;9.40;99.90;;;;;;5043994;28;20256;-69
2022/03/31 09:07:53;;;;;;;19.73;10.80;;;9.70;99.90;;;;;;5035083;28;20208;-68
2022/03/31 09:10:37;;;;;;;22.43;11.13;;;9.60;99.90;;;;;;5043003;28;20199;-68
2022/03/31 09:13:17;;;;;;;26.83;11.20;;;9.60;99.90;;;;;;5037294;28;20218;-68
2022/03/31 09:15:52;;;;;;;22.83;11.97;;;9.80;99.90;;;;;;5037751;28;20220;-67
2022/03/31 09:18:21;;;;;;;20.73;10.80;;;9.90;99.90;;;;;;5039441;28;20197;-71
2022/03/31 09:20:52;;;;;;;23.47;11.53;;;9.90;99.90;;;;;;5035623;28;20198;-66
2022/03/31 09:23:29;;;;;;;21.83;11.03;;;9.80;99.90;;;;;;5043384;28;20210;-69
2022/03/31 09:26:06;;;;;;;22.20;11.50;;;9.90;99.90;;;;;;5045292;28;20234;-71
2022/03/31 09:28:33;;;;;;;20.00;10.63;;;9.70;99.90;;;;;;5044230;28;20203;-67
2022/03/31 09:30:59;;;;;;;24.10;11.77;;;9.50;99.90;;;;;;5038988;28;20265;-69
2022/03/31 09:33:36;;;;;;;23.37;11.90;;;9.40;99.90;;;;;;5046382;28;20213;-68
2022/03/31 09:36:11;;;;;;;22.10;11.70;;;9.40;99.90;;;;;;5033216;28;20224;-69
2022/03/31 09:38:39;;;;;;;20.33;10.33;;;9.40;99.90;;;;;;5047009;28;20252;-71
2022/03/31 09:41:21;;;;;;;21.57;10.93;;;9.50;99.90;;;;;;5037954;28;20269;-69
2022/03/31 09:43:49;;;;;;;24.03;11.57;;;9.70;99.90;;;;;;5040291;28;20195;-69
2022/03/31 09:46:17;;;;;;;20.10;10.77;;;9.70;99.90;;;;;;5051295;28;20220;-69
2022/03/31 09:48:45;;;;;;;19.13;10.53;;;9.90;99.90;;;;;;5034496;28;20244;-68
2022/03/31 09:51:12;;;;;;;21.57;10.40;;;10.10;99.90;;;;;;5039117;28;20195;-67
2022/03/31 09:53:40;;;;;;;21.30;11.03;;;10.10;99.90;;;;;;5045382;28;20239;-68
2022/03/31 09:56:07;;;;;;;23.97;11.90;;;10.00;99.90;;;;;;5045367;28;20233;-72
2022/03/31 09:58:38;;;;;;;19.63;10.97;;;10.00;99.90;;;;;;5038914;28;20672;-69
2022/03/31 10:01:06;;;;;;;19.67;10.57;;;9.90;99.90;;;;;;5039665;28;20199;-68
2022/03/31 10:03:33;;;;;;;22.80;10.90;;;9.90;99.90;;;;;;5034451;28;20251;-70
2022/03/31 10:06:05;;;;;;;19.77;10.23;;;10.10;99.90;;;;;;5042313;28;20269;-70
2022/03/31 10:08:37;;;;;;;21.87;11.33;;;10.30;99.90;;;;;;5046810;28;20226;-69
2022/03/31 10:11:05;;;;;;;19.07;10.67;;;10.60;99.90;;;;;;5036219;28;20615;-68
2022/03/31 10:13:42;;;;;;;19.70;10.73;;;10.50;99.90;;;;;;5046589;28;20625;-69
2022/03/31 10:16:17;;;;;;;19.43;10.67;;;10.60;99.90;;;;;;5043155;28;20613;-68
2022/03/31 10:18:47;;;;;;;21.50;11.23;;;10.70;99.90;;;;;;5045716;28;20191;-68
2022/03/31 10:21:26;;;;;;;23.13;11.67;;;10.40;99.90;;;;;;5034671;28;21068;-68
2022/03/31 10:26:40;;;;;;;20.07;10.70;;;10.50;99.90;;;;;;5039827;28;20331;-68
2022/03/31 10:29:15;;;;;;;19.63;10.73;;;10.50;99.90;;;;;;5036569;28;20214;-67
2022/03/31 10:31:43;;;;;;;21.33;11.43;;;10.60;99.90;;;;;;5044720;28;20221;-68
2022/03/31 10:34:14;;;;;;;21.97;11.80;;;10.50;99.90;;;;;;5039110;28;20763;-68
2022/03/31 10:36:47;;;;;;;25.23;12.07;;;10.60;99.90;;;;;;5044007;28;20218;-68
2022/03/31 10:39:22;;;;;;;23.73;12.33;;;10.40;99.90;;;;;;5040659;28;20199;-70
2022/03/31 10:42:02;;;;;;;22.80;11.67;;;10.50;99.90;;;;;;5046207;28;20198;-68
2022/03/31 10:44:28;;;;;;;22.87;11.97;;;10.50;99.90;;;;;;5038550;28;20667;-72
2022/03/31 10:47:06;;;;;;;26.97;12.60;;;10.40;99.90;;;;;;5032515;28;20216;-68
2022/03/31 10:49:34;;;;;;;24.40;11.30;;;10.40;99.90;;;;;;5047668;28;20217;-71
2022/03/31 10:52:23;;;;;;;24.03;12.33;;;10.30;99.90;;;;;;5031846;28;20215;-66
2022/03/31 10:54:51;;;;;;;25.00;11.70;;;10.30;99.90;;;;;;5046411;28;20193;-69
2022/03/31 10:57:19;;;;;;;22.63;12.00;;;10.30;99.90;;;;;;5033171;28;20191;-65
2022/03/31 10:59:48;;;;;;;24.07;11.80;;;10.50;99.90;;;;;;5036273;28;20705;-66
2022/03/31 11:02:20;;;;;;;22.43;11.97;;;10.50;99.90;;;;;;5046228;28;20195;-68
2022/03/31 11:05:00;;;;;;;22.20;11.60;;;10.80;99.90;;;;;;5046190;28;22173;-67
2022/03/31 11:07:28;;;;;;;22.10;11.87;;;10.90;99.90;;;;;;5039277;28;20677;-67
2022/03/31 11:10:06;;;;;;;21.10;11.43;;;11.10;99.90;;;;;;5044898;28;20196;-68
2022/03/31 11:12:35;;;;;;;23.83;11.67;;;11.10;99.90;;;;;;5044966;28;20220;-68
2022/03/31 11:15:04;;;;;;;23.37;11.47;;;11.40;99.90;;;;;;5041061;28;20219;-71
2022/03/31 11:17:31;;;;;;;21.77;11.93;;;11.60;99.90;;;;;;5037610;28;20195;-68
2022/03/31 11:20:00;;;;;;;23.50;12.47;;;11.70;99.90;;;;;;5035114;28;20203;-68
2022/03/31 11:22:28;;;;;;;22.33;11.33;;;11.40;99.90;;;;;;5042042;28;20191;-71
2022/03/31 11:25:07;;;;;;;26.73;12.40;;;11.10;99.90;;;;;;5039981;28;20248;-69
2022/03/31 11:27:39;;;;;;;21.10;11.00;;;11.00;99.90;;;;;;5038824;28;20202;-68
2022/03/31 11:30:12;;;;;;;21.93;11.43;;;10.90;99.90;;;;;;5039085;28;20286;-67
2022/03/31 11:32:41;;;;;;;22.37;11.13;;;10.90;99.90;;;;;;5040614;28;20215;-70
2022/03/31 11:35:17;;;;;;;21.80;11.60;;;11.10;99.90;;;;;;5040946;28;20207;-69
2022/03/31 11:37:53;;;;;;;21.17;11.53;;;11.40;99.90;;;;;;5049752;28;20198;-67
2022/03/31 11:40:21;;;;;;;20.80;10.77;;;11.50;99.90;;;;;;5049208;28;20777;-68
2022/03/31 11:42:50;;;;;;;22.27;10.97;;;11.30;99.90;;;;;;5053321;28;20685;-68
2022/03/31 11:45:34;;;;;;;20.17;10.67;;;11.20;99.90;;;;;;5041860;28;20220;-68
2022/03/31 11:48:16;;;;;;;22.30;11.03;;;11.30;99.90;;;;;;5049164;28;20225;-68
2022/03/31 11:50:57;;;;;;;19.43;11.03;;;11.20;99.90;;;;;;5034931;28;20243;-66
2022/03/31 11:53:37;;;;;;;18.90;10.47;;;11.30;99.90;;;;;;5036836;28;20230;-68
2022/03/31 11:56:11;;;;;;;21.60;11.20;;;11.10;99.90;;;;;;5044740;28;20692;-68
2022/03/31 11:58:46;;;;;;;19.70;11.13;;;11.20;99.90;;;;;;5032229;28;20284;-69
2022/03/31 12:01:20;;;;;;;21.27;11.27;;;11.20;99.90;;;;;;5041290;28;20192;-68
2022/03/31 12:03:48;;;;;;;21.20;11.43;;;11.30;99.90;;;;;;5037735;28;20200;-68
2022/03/31 12:06:16;;;;;;;19.03;10.43;;;11.30;99.90;;;;;;5037644;28;20223;-69
2022/03/31 12:08:43;;;;;;;22.33;11.53;;;11.30;99.90;;;;;;5039753;28;20221;-69
2022/03/31 12:11:13;;;;;;;18.53;11.40;;;11.30;99.90;;;;;;5041207;28;20624;-69
2022/03/31 12:13:51;;;;;;;18.60;11.00;;;11.50;99.90;;;;;;5041147;28;20219;-68
2022/03/31 12:16:18;;;;;;;20.17;11.10;;;11.50;99.90;;;;;;5045004;28;20583;-69
2022/03/31 12:18:53;;;;;;;23.00;11.20;;;11.60;99.90;;;;;;5046043;28;21781;-71
2022/03/31 12:21:20;;;;;;;20.37;11.30;;;11.80;99.90;;;;;;5045497;28;20552;-69
2022/03/31 12:23:47;;;;;;;22.30;11.40;;;11.80;99.90;;;;;;5041612;28;20288;-69
2022/03/31 12:26:34;;;;;;;18.83;10.30;;;11.70;99.90;;;;;;5039020;28;20707;-68
2022/03/31 12:29:01;;;;;;;18.53;10.73;;;11.80;99.90;;;;;;5042631;28;20265;-69
2022/03/31 12:31:31;;;;;;;21.57;11.37;;;11.90;99.90;;;;;;5038248;28;20217;-72
2022/03/31 12:33:58;;;;;;;21.00;10.90;;;12.10;99.90;;;;;;5034643;28;20225;-69
2022/03/31 12:36:32;;;;;;;18.80;11.43;;;12.10;99.90;;;;;;5046474;28;20219;-72
2022/03/31 12:39:02;;;;;;;20.03;10.10;;;11.70;99.90;;;;;;5039942;28;20200;-68
2022/03/31 12:41:35;;;;;;;19.23;10.80;;;11.60;99.90;;;;;;5041104;28;20229;-67
2022/03/31 12:44:10;;;;;;;18.17;11.10;;;11.40;99.90;;;;;;5041579;28;20198;-72
2022/03/31 12:46:52;;;;;;;20.27;10.87;;;11.60;99.90;;;;;;5038997;28;20231;-71
2022/03/31 12:49:22;;;;;;;18.90;10.23;;;11.80;99.90;;;;;;5042520;28;20662;-72